Time,TemperatureF,DewpointF,PressureIn,WindDirection,WindDirectionDegrees,WindSpeedMPH,WindSpeedGustMPH,Humidity,HourlyPrecipIn,Conditions,Clouds,dailyrainin,SoftwareType,DateUTC
2013-01-29 00:01:00,48.6,48.6,29.75,SE,138,3.0,6.0,100,0.00,,,0.11,VWS V14.01,2013-01-29 05:01:00,
2013-01-29 00:05:00,48.8,48.8,29.75,SSE,158,2.0,6.0,100,0.00,,,0.00,VWS V14.01,2013-01-29 05:05:00,
2013-01-29 00:12:00,48.9,48.9,29.75,SE,144,5.0,6.0,100,0.00,,,0.00,VWS V14.01,2013-01-29 05:12:00,
2013-01-29 00:20:00,49.2,49.2,29.75,SSE,161,5.0,6.0,100,0.00,,,0.00,VWS V14.01,2013-01-29 05:20:00,
2013-01-29 00:25:00,49.5,49.5,29.75,SSE,148,3.0,6.0,100,0.00,,,0.00,VWS V14.01,2013-01-29 05:25:00,
2013-01-29 00:30:00,49.6,49.6,29.75,SSE,155,2.0,6.0,100,0.00,,,0.00,VWS V14.01,2013-01-29 05:30:00,
2013-01-29 00:35:00,49.6,49.6,29.75,SSE,158,0.0,9.0,100,0.00,,,0.00,VWS V14.01,2013-01-29 05:35:00,
2013-01-29 00:45:00,49.8,49.8,29.74,SE,134,0.0,6.0,100,0.00,,,0.00,VWS V14.01,2013-01-29 05:45:00,
2013-01-29 00:50:00,49.8,49.8,29.74,SE,131,3.0,10.0,100,0.00,,,0.00,VWS V14.01,2013-01-29 05:50:00,
2013-01-29 00:55:00,49.8,49.8,29.74,SSE,148,3.0,9.0,100,0.00,,,0.00,VWS V14.01,2013-01-29 05:55:00,
2013-01-29 01:05:00,50.1,50.1,29.73,SE,145,0.0,8.0,100,0.00,,,0.00,VWS V14.01,2013-01-29 06:05:00,
2013-01-29 01:10:00,50.4,50.4,29.73,SSE,157,9.0,9.0,100,0.00,,,0.00,VWS V14.01,2013-01-29 06:10:00,
2013-01-29 01:15:00,50.7,50.7,29.72,SSE,151,7.0,9.0,100,0.00,,,0.00,VWS V14.01,2013-01-29 06:15:00,
2013-01-29 01:20:00,50.8,50.8,29.72,SSE,165,7.0,11.0,100,0.00,,,0.00,VWS V14.01,2013-01-29 06:20:00,
2013-01-29 01:30:00,51.0,51.0,29.70,SSE,164,10.0,11.0,100,0.00,,,0.00,VWS V14.01,2013-01-29 06:30:00,
2013-01-29 01:35:00,51.1,51.1,29.70,SSE,164,3.0,12.0,100,0.00,,,0.00,VWS V14.01,2013-01-29 06:35:00,
2013-01-29 01:40:00,51.3,51.3,29.70,South,186,13.0,13.0,100,0.00,,,0.00,VWS V14.01,2013-01-29 06:40:00,
2013-01-29 01:45:00,51.4,51.4,29.70,SE,134,6.0,13.0,100,0.00,,,0.00,VWS V14.01,2013-01-29 06:45:00,
2013-01-29 01:50:00,51.6,51.6,29.70,SE,143,7.0,13.0,100,0.00,,,0.00,VWS V14.01,2013-01-29 06:50:00,
2013-01-29 01:55:00,51.6,51.6,29.70,SSW,193,7.0,16.0,100,0.00,,,0.00,VWS V14.01,2013-01-29 06:55:00,
2013-01-29 02:00:00,51.7,51.7,29.70,South,174,3.0,13.0,100,0.00,,,0.00,VWS V14.01,2013-01-29 07:00:00,
2013-01-29 02:10:00,52.0,52.0,29.70,SSE,155,7.0,12.0,100,0.00,,,0.00,VWS V14.01,2013-01-29 07:10:00,
2013-01-29 02:15:00,52.0,52.0,29.70,SSE,151,7.0,13.0,100,0.00,,,0.00,VWS V14.01,2013-01-29 07:15:00,
2013-01-29 02:20:00,52.2,52.2,29.70,SSE,158,3.0,12.0,100,0.00,,,0.00,VWS V14.01,2013-01-29 07:20:00,
2013-01-29 02:25:00,52.2,52.2,29.70,SSE,165,4.0,13.0,100,0.00,,,0.00,VWS V14.01,2013-01-29 07:25:00,
2013-01-29 02:35:00,52.5,52.5,29.70,SSE,155,10.0,14.0,100,0.00,,,0.00,VWS V14.01,2013-01-29 07:35:00,
2013-01-29 02:40:00,52.3,52.3,29.70,SSW,198,7.0,17.0,100,0.00,,,0.00,VWS V14.01,2013-01-29 07:40:00,
2013-01-29 02:45:00,52.5,52.5,29.69,SSW,205,7.0,13.0,100,0.00,,,0.00,VWS V14.01,2013-01-29 07:45:00,
2013-01-29 02:55:00,52.6,52.6,29.69,SSE,148,10.0,10.0,100,0.00,,,0.00,VWS V14.01,2013-01-29 07:55:00,
2013-01-29 03:05:00,52.8,52.8,29.68,South,191,6.0,13.0,100,0.00,,,0.00,VWS V14.01,2013-01-29 08:05:00,
2013-01-29 03:10:00,52.8,52.8,29.68,SSE,148,6.0,16.0,100,0.00,,,0.00,VWS V14.01,2013-01-29 08:10:00,
2013-01-29 03:15:00,52.8,52.8,29.68,SSE,155,7.0,17.0,100,0.00,,,0.00,VWS V14.01,2013-01-29 08:15:00,
2013-01-29 03:20:00,52.9,52.9,29.68,SSW,199,14.0,18.0,100,0.00,,,0.00,VWS V14.01,2013-01-29 08:20:00,
2013-01-29 03:25:00,53.1,53.1,29.68,SSW,198,11.0,15.0,100,0.00,,,0.00,VWS V14.01,2013-01-29 08:25:00,
2013-01-29 03:31:00,53.1,53.1,29.67,South,191,12.0,14.0,100,0.00,,,0.00,VWS V14.01,2013-01-29 08:31:00,
2013-01-29 03:40:00,53.5,53.5,29.67,SSE,160,13.0,14.0,100,0.00,,,0.00,VWS V14.01,2013-01-29 08:40:00,
2013-01-29 03:45:00,53.6,53.6,29.66,SSW,195,8.0,18.0,100,0.00,,,0.00,VWS V14.01,2013-01-29 08:45:00,
2013-01-29 03:50:00,53.6,53.6,29.66,South,188,6.0,17.0,100,0.00,,,0.00,VWS V14.01,2013-01-29 08:50:00,
2013-01-29 03:55:00,53.9,53.9,29.66,SSE,148,6.0,16.0,100,0.00,,,0.00,VWS V14.01,2013-01-29 08:55:00,
2013-01-29 04:00:00,53.9,53.9,29.65,SSW,192,11.0,17.0,100,0.00,,,0.00,VWS V14.01,2013-01-29 09:00:00,
2013-01-29 04:10:00,53.9,53.9,29.65,South,184,6.0,16.0,100,0.00,,,0.00,VWS V14.01,2013-01-29 09:10:00,
2013-01-29 04:15:00,54.1,54.1,29.64,SSW,193,11.0,21.0,100,0.00,,,0.00,VWS V14.01,2013-01-29 09:15:00,
2013-01-29 04:20:00,53.9,53.9,29.64,SSE,167,11.0,19.0,100,0.00,,,0.00,VWS V14.01,2013-01-29 09:20:00,
2013-01-29 04:25:00,53.9,53.9,29.64,South,182,9.0,19.0,100,0.00,,,0.00,VWS V14.01,2013-01-29 09:25:00,
2013-01-29 04:30:00,53.9,53.9,29.64,SSE,162,6.0,17.0,100,0.00,,,0.00,VWS V14.01,2013-01-29 09:30:00,
2013-01-29 04:35:00,53.9,53.9,29.64,South,169,4.0,16.0,100,0.00,,,0.00,VWS V14.01,2013-01-29 09:35:00,
2013-01-29 04:40:00,53.9,53.9,29.64,SSW,196,8.0,17.0,100,0.00,,,0.00,VWS V14.01,2013-01-29 09:40:00,
2013-01-29 04:45:00,53.9,53.9,29.62,SSE,167,11.0,20.0,100,0.00,,,0.00,VWS V14.01,2013-01-29 09:45:00,
2013-01-29 04:50:00,53.9,53.9,29.62,SSW,195,11.0,17.0,100,0.00,,,0.00,VWS V14.01,2013-01-29 09:50:00,
2013-01-29 04:55:00,53.9,53.9,29.62,South,184,8.0,17.0,100,0.00,,,0.00,VWS V14.01,2013-01-29 09:55:00,
2013-01-29 05:00:00,53.8,53.8,29.63,SSE,158,6.0,16.0,100,0.00,,,0.00,VWS V14.01,2013-01-29 10:00:00,
2013-01-29 05:10:00,54.1,54.1,29.63,South,178,8.0,17.0,100,0.00,,,0.00,VWS V14.01,2013-01-29 10:10:00,
2013-01-29 05:15:00,54.1,54.1,29.62,South,176,7.0,18.0,100,0.00,,,0.00,VWS V14.01,2013-01-29 10:15:00,
2013-01-29 05:20:00,54.1,54.1,29.62,SSE,164,6.0,18.0,100,0.00,,,0.00,VWS V14.01,2013-01-29 10:20:00,
2013-01-29 05:25:00,54.1,54.1,29.62,SSE,160,7.0,18.0,100,0.00,,,0.00,VWS V14.01,2013-01-29 10:25:00,
2013-01-29 05:30:00,53.9,53.9,29.63,SW,226,17.0,17.0,100,0.00,,,0.00,VWS V14.01,2013-01-29 10:30:00,
2013-01-29 05:35:00,53.9,53.9,29.63,SSW,200,16.0,19.0,100,0.00,,,0.00,VWS V14.01,2013-01-29 10:35:00,
2013-01-29 05:40:00,53.9,53.9,29.63,SSE,165,9.0,16.0,100,0.00,,,0.00,VWS V14.01,2013-01-29 10:40:00,
2013-01-29 05:45:00,53.9,53.9,29.62,SSW,205,12.0,20.0,100,0.00,,,0.00,VWS V14.01,2013-01-29 10:45:00,
2013-01-29 05:50:00,54.1,54.1,29.62,SSE,147,12.0,22.0,100,0.00,,,0.00,VWS V14.01,2013-01-29 10:50:00,
2013-01-29 05:55:00,54.1,54.1,29.62,South,182,8.0,19.0,100,0.00,,,0.00,VWS V14.01,2013-01-29 10:55:00,
2013-01-29 06:00:00,54.2,54.2,29.62,SSW,193,17.0,25.0,100,0.00,,,0.00,VWS V14.01,2013-01-29 11:00:00,
2013-01-29 06:05:00,54.2,54.2,29.62,South,191,17.0,20.0,100,0.00,,,0.00,VWS V14.01,2013-01-29 11:05:00,
2013-01-29 06:10:00,54.2,54.2,29.62,South,189,11.0,22.0,100,0.00,,,0.00,VWS V14.01,2013-01-29 11:10:00,
2013-01-29 06:15:00,54.2,54.2,29.62,SW,216,14.0,22.0,100,0.00,,,0.00,VWS V14.01,2013-01-29 11:15:00,
2013-01-29 06:20:00,54.2,54.2,29.62,SW,220,15.0,21.0,100,0.00,,,0.00,VWS V14.01,2013-01-29 11:20:00,
2013-01-29 06:25:00,54.4,54.4,29.62,South,178,18.0,20.0,100,0.00,,,0.00,VWS V14.01,2013-01-29 11:25:00,
2013-01-29 06:30:00,54.2,54.2,29.62,South,182,13.0,19.0,100,0.00,,,0.00,VWS V14.01,2013-01-29 11:30:00,
2013-01-29 06:35:00,54.2,54.2,29.62,South,179,11.0,20.0,100,0.00,,,0.00,VWS V14.01,2013-01-29 11:35:00,
2013-01-29 06:45:00,54.2,53.9,29.62,South,178,10.0,21.0,99,0.00,,-RA,0.00,VWS V14.01,2013-01-29 11:45:00,
2013-01-29 06:50:00,54.4,53.8,29.62,SE,143,11.0,18.0,98,0.00,,-RA,0.00,VWS V14.01,2013-01-29 11:50:00,
2013-01-29 07:00:00,54.5,53.7,29.62,SSW,206,10.0,24.0,97,0.01,,-RA,0.01,VWS V14.01,2013-01-29 12:00:00,
2013-01-29 07:10:00,54.5,53.7,29.62,SSW,198,13.0,18.0,97,0.02,,-RA,0.02,VWS V14.01,2013-01-29 12:10:00,
2013-01-29 07:15:00,54.7,53.9,29.62,SSW,202,13.0,18.0,97,0.03,,-RA,0.03,VWS V14.01,2013-01-29 12:15:00,
2013-01-29 07:20:00,54.8,54.0,29.62,South,171,11.0,21.0,97,0.03,,-RA,0.03,VWS V14.01,2013-01-29 12:20:00,
2013-01-29 07:25:00,54.8,54.0,29.62,SSW,202,8.0,18.0,97,0.05,,-RA,0.05,VWS V14.01,2013-01-29 12:25:00,
2013-01-29 07:30:00,54.8,54.0,29.62,SSW,209,11.0,16.0,97,0.09,,-RA,0.09,VWS V14.01,2013-01-29 12:30:00,
2013-01-29 07:40:00,54.7,53.9,29.62,SSW,198,5.0,14.0,97,0.11,,-RA,0.11,VWS V14.01,2013-01-29 12:40:00,
2013-01-29 07:45:00,54.7,53.9,29.63,SW,217,11.0,18.0,97,0.12,,-RA,0.12,VWS V14.01,2013-01-29 12:45:00,
2013-01-29 07:50:00,54.7,54.2,29.63,SSW,210,12.0,16.0,98,0.13,,-RA,0.13,VWS V14.01,2013-01-29 12:50:00,
2013-01-29 07:55:00,54.8,54.2,29.63,South,189,11.0,19.0,98,0.14,,-RA,0.14,VWS V14.01,2013-01-29 12:55:00,
2013-01-29 08:00:00,54.7,54.2,29.62,South,172,7.0,18.0,98,0.18,,-RA,0.18,VWS V14.01,2013-01-29 13:00:00,
2013-01-29 08:10:00,54.7,54.4,29.62,South,189,12.0,19.0,99,0.17,,-RA,0.18,VWS V14.01,2013-01-29 13:10:00,
2013-01-29 08:15:00,54.7,54.4,29.61,SSW,209,14.0,16.0,99,0.16,,-RA,0.18,VWS V14.01,2013-01-29 13:15:00,
2013-01-29 08:20:00,54.7,54.4,29.61,SSE,168,6.0,17.0,99,0.15,,-RA,0.18,VWS V14.01,2013-01-29 13:20:00,
2013-01-29 08:25:00,54.8,54.5,29.61,SSE,168,7.0,18.0,99,0.15,,-RA,0.18,VWS V14.01,2013-01-29 13:25:00,
2013-01-29 08:30:00,54.8,54.5,29.61,SSE,157,11.0,20.0,99,0.13,,-RA,0.18,VWS V14.01,2013-01-29 13:30:00,
2013-01-29 08:35:00,55.0,54.7,29.61,SSE,165,9.0,17.0,99,0.09,,-RA,0.18,VWS V14.01,2013-01-29 13:35:00,
2013-01-29 08:40:00,55.0,54.5,29.61,SW,224,14.0,20.0,98,0.07,,,0.18,VWS V14.01,2013-01-29 13:40:00,
2013-01-29 08:45:00,55.0,54.5,29.61,SSW,213,16.0,18.0,98,0.07,,,0.18,VWS V14.01,2013-01-29 13:45:00,
2013-01-29 08:50:00,55.0,54.5,29.61,South,184,7.0,21.0,98,0.06,,,0.18,VWS V14.01,2013-01-29 13:50:00,
2013-01-29 08:55:00,55.1,54.5,29.61,SSW,193,6.0,19.0,98,0.05,,,0.18,VWS V14.01,2013-01-29 13:55:00,
2013-01-29 09:05:00,55.3,54.8,29.61,SW,234,10.0,21.0,98,0.00,,,0.18,VWS V14.01,2013-01-29 14:05:00,
2013-01-29 09:10:00,55.4,54.6,29.61,SSE,155,9.0,22.0,97,0.00,,,0.18,VWS V14.01,2013-01-29 14:10:00,
2013-01-29 09:15:00,55.4,54.6,29.61,SSW,195,6.0,19.0,97,0.00,,,0.18,VWS V14.01,2013-01-29 14:15:00,
2013-01-29 09:20:00,55.4,54.6,29.61,SW,216,16.0,19.0,97,0.00,,,0.18,VWS V14.01,2013-01-29 14:20:00,
2013-01-29 09:25:00,55.4,54.3,29.61,SSW,192,12.0,20.0,96,0.00,,,0.18,VWS V14.01,2013-01-29 14:25:00,
2013-01-29 09:30:00,55.4,54.3,29.61,South,184,6.0,18.0,96,0.00,,,0.18,VWS V14.01,2013-01-29 14:30:00,
2013-01-29 09:35:00,55.4,54.3,29.61,SSE,160,7.0,17.0,96,0.00,,,0.18,VWS V14.01,2013-01-29 14:35:00,
2013-01-29 09:40:00,55.4,54.3,29.61,SSW,209,13.0,14.0,96,0.00,,,0.18,VWS V14.01,2013-01-29 14:40:00,
2013-01-29 09:45:00,55.6,54.5,29.61,South,191,7.0,17.0,96,0.00,,,0.18,VWS V14.01,2013-01-29 14:45:00,
2013-01-29 09:50:00,55.7,54.6,29.61,SSE,160,5.0,19.0,96,0.00,,,0.18,VWS V14.01,2013-01-29 14:50:00,
2013-01-29 09:55:00,55.9,54.5,29.61,SW,226,10.0,17.0,95,0.00,,,0.18,VWS V14.01,2013-01-29 14:55:00,
2013-01-29 10:00:00,56.0,54.6,29.62,South,179,16.0,20.0,95,0.00,,,0.18,VWS V14.01,2013-01-29 15:00:00,
2013-01-29 10:05:00,56.2,54.8,29.62,SW,219,16.0,24.0,95,0.01,,,0.19,VWS V14.01,2013-01-29 15:05:00,
2013-01-29 10:10:00,56.3,54.6,29.62,SSW,208,11.0,21.0,94,0.01,,,0.19,VWS V14.01,2013-01-29 15:10:00,
2013-01-29 10:15:00,56.2,54.5,29.62,SSW,206,12.0,16.0,94,0.01,,,0.19,VWS V14.01,2013-01-29 15:15:00,
2013-01-29 10:20:00,56.2,54.5,29.62,SSW,206,10.0,20.0,94,0.01,,,0.19,VWS V14.01,2013-01-29 15:20:00,
2013-01-29 10:25:00,56.2,54.5,29.62,SSW,206,16.0,18.0,94,0.01,,,0.19,VWS V14.01,2013-01-29 15:25:00,
2013-01-29 10:30:00,56.2,54.5,29.61,SSE,167,10.0,17.0,94,0.01,,,0.19,VWS V14.01,2013-01-29 15:30:00,
2013-01-29 10:35:00,56.0,54.0,29.61,SW,215,13.0,16.0,93,0.01,,,0.19,VWS V14.01,2013-01-29 15:35:00,
2013-01-29 10:40:00,56.0,54.0,29.61,SSW,205,14.0,17.0,93,0.01,,-RA,0.19,VWS V14.01,2013-01-29 15:40:00,
2013-01-29 10:45:00,55.9,53.9,29.61,SSW,213,8.0,17.0,93,0.01,,-RA,0.19,VWS V14.01,2013-01-29 15:45:00,
2013-01-29 10:55:00,55.7,53.7,29.61,South,185,11.0,18.0,93,0.01,,-RA,0.19,VWS V14.01,2013-01-29 15:55:00,
2013-01-29 11:05:00,55.9,53.9,29.60,SSW,196,11.0,18.0,93,0.01,,-RA,0.19,VWS V14.01,2013-01-29 16:05:00,
2013-01-29 11:10:00,55.9,53.9,29.60,SW,216,13.0,15.0,93,0.00,,-RA,0.19,VWS V14.01,2013-01-29 16:10:00,
2013-01-29 11:15:00,56.0,54.0,29.60,South,179,6.0,20.0,93,0.00,,-RA,0.19,VWS V14.01,2013-01-29 16:15:00,
2013-01-29 11:20:00,56.2,54.2,29.60,South,189,10.0,16.0,93,0.00,,-RA,0.19,VWS V14.01,2013-01-29 16:20:00,
2013-01-29 11:25:00,56.2,54.2,29.60,SSW,199,12.0,14.0,93,0.00,,-RA,0.19,VWS V14.01,2013-01-29 16:25:00,
2013-01-29 11:30:00,56.3,54.3,29.59,South,188,10.0,18.0,93,0.00,,-RA,0.19,VWS V14.01,2013-01-29 16:30:00,
2013-01-29 11:35:00,56.3,54.3,29.59,South,176,7.0,14.0,93,0.00,,-RA,0.19,VWS V14.01,2013-01-29 16:35:00,
2013-01-29 11:40:00,56.3,54.3,29.59,SSE,157,7.0,13.0,93,0.00,,-RA,0.19,VWS V14.01,2013-01-29 16:40:00,
2013-01-29 11:45:00,56.5,54.5,29.59,South,178,12.0,18.0,93,0.00,,-RA,0.19,VWS V14.01,2013-01-29 16:45:00,
2013-01-29 11:50:00,56.6,54.6,29.59,South,181,13.0,18.0,93,0.00,,-RA,0.19,VWS V14.01,2013-01-29 16:50:00,
2013-01-29 11:55:00,56.6,54.3,29.59,SSW,198,7.0,19.0,92,0.00,,-RA,0.19,VWS V14.01,2013-01-29 16:55:00,
2013-01-29 12:00:00,56.6,54.3,29.58,SSW,202,11.0,17.0,92,0.00,,-RA,0.19,VWS V14.01,2013-01-29 17:00:00,
2013-01-29 12:10:00,56.7,54.4,29.58,South,186,13.0,17.0,92,0.00,,-RA,0.19,VWS V14.01,2013-01-29 17:10:00,
2013-01-29 12:15:00,56.7,54.4,29.58,South,188,6.0,13.0,92,0.00,,-RA,0.19,VWS V14.01,2013-01-29 17:15:00,
2013-01-29 12:25:00,56.9,54.3,29.58,SSW,195,9.0,20.0,91,0.00,,-RA,0.19,VWS V14.01,2013-01-29 17:25:00,
2013-01-29 12:30:00,57.0,54.4,29.57,South,182,8.0,17.0,91,0.00,,-RA,0.19,VWS V14.01,2013-01-29 17:30:00,
2013-01-29 12:35:00,57.0,54.4,29.57,SSW,208,12.0,17.0,91,0.00,,-RA,0.19,VWS V14.01,2013-01-29 17:35:00,
2013-01-29 12:40:00,57.0,54.1,29.57,SSE,155,10.0,16.0,90,0.00,,,0.19,VWS V14.01,2013-01-29 17:40:00,
2013-01-29 12:45:00,57.2,54.3,29.57,SSW,208,12.0,18.0,90,0.00,,,0.19,VWS V14.01,2013-01-29 17:45:00,
2013-01-29 12:55:00,57.2,54.3,29.57,SSE,165,10.0,18.0,90,0.00,,,0.19,VWS V14.01,2013-01-29 17:55:00,
2013-01-29 13:00:00,57.3,54.1,29.55,SSE,167,7.0,17.0,89,0.00,,,0.19,VWS V14.01,2013-01-29 18:00:00,
2013-01-29 13:10:00,57.5,54.3,29.55,South,172,11.0,18.0,89,0.00,,,0.19,VWS V14.01,2013-01-29 18:10:00,
2013-01-29 13:15:00,57.5,54.3,29.54,South,181,8.0,19.0,89,0.00,,,0.19,VWS V14.01,2013-01-29 18:15:00,
2013-01-29 13:20:00,57.5,54.3,29.54,SSW,206,11.0,18.0,89,0.01,,,0.20,VWS V14.01,2013-01-29 18:20:00,
2013-01-29 13:25:00,57.3,54.1,29.54,SSE,154,6.0,17.0,89,0.02,,,0.21,VWS V14.01,2013-01-29 18:25:00,
2013-01-29 13:30:00,57.2,54.3,29.53,South,184,16.0,18.0,90,0.02,,,0.21,VWS V14.01,2013-01-29 18:30:00,
2013-01-29 13:35:00,57.2,54.3,29.53,SSW,203,14.0,20.0,90,0.02,,,0.21,VWS V14.01,2013-01-29 18:35:00,
2013-01-29 13:40:00,57.0,54.1,29.53,South,186,14.0,16.0,90,0.02,,OVC006,0.21,VWS V14.01,2013-01-29 18:40:00,
2013-01-29 13:45:00,57.2,54.3,29.52,SSW,210,11.0,17.0,90,0.02,,OVC006,0.21,VWS V14.01,2013-01-29 18:45:00,
2013-01-29 13:50:00,57.0,54.1,29.52,South,186,10.0,13.0,90,0.02,,OVC006,0.21,VWS V14.01,2013-01-29 18:50:00,
2013-01-29 13:55:00,57.0,54.1,29.52,SSW,200,3.0,16.0,90,0.02,,OVC006,0.21,VWS V14.01,2013-01-29 18:55:00,
2013-01-29 14:00:00,57.0,54.1,29.51,South,178,5.0,14.0,90,0.02,,OVC006,0.21,VWS V14.01,2013-01-29 19:00:00,
2013-01-29 14:05:00,57.2,54.6,29.51,South,179,10.0,17.0,91,0.02,,OVC006,0.21,VWS V14.01,2013-01-29 19:05:00,
2013-01-29 14:15:00,57.0,54.1,29.50,South,175,3.0,12.0,90,0.02,,OVC006,0.21,VWS V14.01,2013-01-29 19:15:00,
2013-01-29 14:25:00,57.0,54.1,29.50,SE,143,5.0,16.0,90,0.01,,OVC006,0.21,VWS V14.01,2013-01-29 19:25:00,
2013-01-29 14:30:00,57.0,54.1,29.50,SSE,150,10.0,19.0,90,0.00,,OVC006,0.21,VWS V14.01,2013-01-29 19:30:00,
2013-01-29 14:35:00,57.2,54.3,29.50,SSW,199,8.0,18.0,90,0.00,,OVC006,0.21,VWS V14.01,2013-01-29 19:35:00,
2013-01-29 14:40:00,57.3,54.4,29.50,SSE,154,6.0,20.0,90,0.00,,,0.21,VWS V14.01,2013-01-29 19:40:00,
2013-01-29 14:45:00,57.3,54.4,29.49,SSW,198,11.0,16.0,90,0.01,,,0.22,VWS V14.01,2013-01-29 19:45:00,
2013-01-29 14:50:00,57.5,54.6,29.49,SSE,155,9.0,15.0,90,0.01,,,0.22,VWS V14.01,2013-01-29 19:50:00,
2013-01-29 14:55:00,57.5,54.6,29.49,SW,217,18.0,18.0,90,0.01,,,0.22,VWS V14.01,2013-01-29 19:55:00,
2013-01-29 15:00:00,57.5,54.6,29.49,SSE,165,6.0,18.0,90,0.01,,,0.22,VWS V14.01,2013-01-29 20:00:00,
2013-01-29 15:05:00,57.5,54.6,29.49,SSE,154,13.0,19.0,90,0.02,,,0.23,VWS V14.01,2013-01-29 20:05:00,
2013-01-29 15:10:00,57.2,54.3,29.49,South,172,12.0,19.0,90,0.04,,,0.25,VWS V14.01,2013-01-29 20:10:00,
2013-01-29 15:20:00,57.2,54.6,29.48,SSE,157,8.0,15.0,91,0.05,,,0.26,VWS V14.01,2013-01-29 20:20:00,
2013-01-29 15:25:00,57.2,54.6,29.48,SSE,158,6.0,13.0,91,0.05,,,0.26,VWS V14.01,2013-01-29 20:25:00,
2013-01-29 15:30:00,57.3,55.0,29.47,SE,143,6.0,18.0,92,0.05,,,0.26,VWS V14.01,2013-01-29 20:30:00,
2013-01-29 15:35:00,57.5,55.2,29.47,SSE,152,9.0,16.0,92,0.05,,,0.26,VWS V14.01,2013-01-29 20:35:00,
2013-01-29 15:40:00,57.5,54.9,29.47,SE,144,10.0,20.0,91,0.05,,,0.26,VWS V14.01,2013-01-29 20:40:00,
2013-01-29 15:45:00,57.3,54.7,29.48,South,172,12.0,16.0,91,0.05,,,0.26,VWS V14.01,2013-01-29 20:45:00,
2013-01-29 15:50:00,57.5,54.9,29.48,SSE,160,7.0,19.0,91,0.04,,,0.26,VWS V14.01,2013-01-29 20:50:00,
2013-01-29 15:55:00,57.3,54.7,29.48,South,171,6.0,17.0,91,0.04,,,0.26,VWS V14.01,2013-01-29 20:55:00,
2013-01-29 16:00:00,57.3,54.7,29.47,South,176,6.0,17.0,91,0.04,,,0.26,VWS V14.01,2013-01-29 21:00:00,
2013-01-29 16:10:00,57.3,54.7,29.47,SE,134,11.0,12.0,91,0.03,,,0.26,VWS V14.01,2013-01-29 21:10:00,
2013-01-29 16:15:00,57.5,54.6,29.47,SSE,157,10.0,17.0,90,0.01,,,0.26,VWS V14.01,2013-01-29 21:15:00,
2013-01-29 16:20:00,57.5,54.6,29.47,SSE,157,15.0,17.0,90,0.00,,,0.26,VWS V14.01,2013-01-29 21:20:00,
2013-01-29 16:25:00,57.5,54.3,29.47,SSE,157,11.0,16.0,89,0.00,,,0.26,VWS V14.01,2013-01-29 21:25:00,
2013-01-29 16:31:00,57.5,54.3,29.45,SE,131,6.0,17.0,89,0.00,,,0.26,VWS V14.01,2013-01-29 21:31:00,
2013-01-29 16:40:00,57.0,54.1,29.45,SSE,158,9.0,17.0,90,0.12,,OVC010,0.38,VWS V14.01,2013-01-29 21:40:00,
2013-01-29 16:45:00,56.9,54.3,29.46,SSE,164,6.0,14.0,91,0.15,,OVC010,0.41,VWS V14.01,2013-01-29 21:45:00,
2013-01-29 16:50:00,56.7,54.1,29.46,SSE,164,14.0,14.0,91,0.15,,OVC010,0.41,VWS V14.01,2013-01-29 21:50:00,
2013-01-29 16:55:00,56.7,54.4,29.46,South,179,10.0,16.0,92,0.15,,OVC010,0.41,VWS V14.01,2013-01-29 21:55:00,
2013-01-29 17:00:00,56.7,54.4,29.46,SSE,152,12.0,15.0,92,0.16,,OVC010,0.42,VWS V14.01,2013-01-29 22:00:00,
2013-01-29 17:10:00,56.7,54.4,29.46,SSE,168,12.0,18.0,92,0.17,,OVC010,0.43,VWS V14.01,2013-01-29 22:10:00,
2013-01-29 17:15:00,56.7,54.4,29.45,SSE,147,13.0,19.0,92,0.18,,OVC010,0.44,VWS V14.01,2013-01-29 22:15:00,
2013-01-29 17:20:00,56.7,54.4,29.45,South,179,10.0,14.0,92,0.18,,OVC010,0.44,VWS V14.01,2013-01-29 22:20:00,
2013-01-29 17:25:00,56.7,54.4,29.45,SSW,203,8.0,16.0,92,0.18,,OVC010,0.44,VWS V14.01,2013-01-29 22:25:00,
2013-01-29 17:30:00,56.9,54.6,29.45,SSE,147,16.0,16.0,92,0.19,,OVC010,0.45,VWS V14.01,2013-01-29 22:30:00,
2013-01-29 17:35:00,57.0,54.7,29.45,SSW,195,8.0,19.0,92,0.19,,OVC010,0.45,VWS V14.01,2013-01-29 22:35:00,
2013-01-29 17:40:00,56.9,54.6,29.45,South,176,7.0,15.0,92,0.18,,-RA,0.45,VWS V14.01,2013-01-29 22:40:00,
2013-01-29 17:45:00,56.9,54.6,29.44,SSE,151,10.0,16.0,92,0.08,,-RA,0.46,VWS V14.01,2013-01-29 22:45:00,
2013-01-29 17:50:00,56.7,54.4,29.44,SE,134,7.0,14.0,92,0.06,,-RA,0.47,VWS V14.01,2013-01-29 22:50:00,
2013-01-29 17:55:00,56.6,54.3,29.44,South,179,8.0,12.0,92,0.06,,-RA,0.47,VWS V14.01,2013-01-29 22:55:00,
2013-01-29 18:00:00,56.6,54.3,29.44,SSE,152,5.0,14.0,92,0.07,,-RA,0.48,VWS V14.01,2013-01-29 23:00:00,
2013-01-29 18:05:00,56.6,54.3,29.44,SSE,152,13.0,13.0,92,0.07,,-RA,0.49,VWS V14.01,2013-01-29 23:05:00,
2013-01-29 18:10:00,56.5,54.2,29.44,SE,126,5.0,13.0,92,0.08,,-RA,0.50,VWS V14.01,2013-01-29 23:10:00,
2013-01-29 18:15:00,56.5,54.2,29.44,South,172,6.0,15.0,92,0.09,,-RA,0.52,VWS V14.01,2013-01-29 23:15:00,
2013-01-29 18:20:00,56.2,53.9,29.44,SE,137,10.0,13.0,92,0.10,,-RA,0.54,VWS V14.01,2013-01-29 23:20:00,
2013-01-29 18:25:00,55.9,53.6,29.44,SE,145,5.0,12.0,92,0.10,,-RA,0.54,VWS V14.01,2013-01-29 23:25:00,
2013-01-29 18:31:00,55.6,53.3,29.43,ESE,116,6.0,12.0,92,0.12,,-RA,0.56,VWS V14.01,2013-01-29 23:31:00,
2013-01-29 18:36:00,55.4,53.4,29.43,ESE,114,5.0,10.0,93,0.12,,-RA,0.57,VWS V14.01,2013-01-29 23:36:00,
2013-01-29 18:45:00,55.3,53.3,29.41,South,169,7.0,14.0,93,0.12,,OVC010,0.57,VWS V14.01,2013-01-29 23:45:00,
2013-01-29 18:50:00,55.3,53.3,29.41,SE,130,7.0,12.0,93,0.11,,OVC010,0.57,VWS V14.01,2013-01-29 23:50:00,
2013-01-29 18:55:00,55.3,53.3,29.41,SSE,152,4.0,13.0,93,0.10,,OVC010,0.57,VWS V14.01,2013-01-29 23:55:00,
2013-01-29 19:00:00,55.3,53.3,29.40,ESE,113,6.0,10.0,93,0.10,,OVC010,0.57,VWS V14.01,2013-01-30 00:00:00,
2013-01-29 19:10:00,55.1,53.1,29.40,SE,124,6.0,10.0,93,0.08,,OVC010,0.57,VWS V14.01,2013-01-30 00:10:00,
2013-01-29 19:15:00,55.3,53.3,29.39,SE,141,5.0,12.0,93,0.07,,OVC010,0.57,VWS V14.01,2013-01-30 00:15:00,
2013-01-29 19:20:00,55.3,53.3,29.39,East,99,4.0,8.0,93,0.05,,OVC010,0.57,VWS V14.01,2013-01-30 00:20:00,
2013-01-29 19:25:00,55.4,53.4,29.39,ESE,121,3.0,13.0,93,0.03,,OVC010,0.57,VWS V14.01,2013-01-30 00:25:00,
2013-01-29 19:30:00,55.4,53.4,29.38,SSE,164,6.0,12.0,93,0.03,,OVC010,0.57,VWS V14.01,2013-01-30 00:30:00,
2013-01-29 19:35:00,55.4,53.4,29.38,SE,143,5.0,13.0,93,0.01,,OVC010,0.57,VWS V14.01,2013-01-30 00:35:00,
2013-01-29 19:40:00,55.7,53.7,29.38,SSE,162,6.0,12.0,93,0.00,,-RA,0.57,VWS V14.01,2013-01-30 00:40:00,
2013-01-29 19:45:00,55.7,53.4,29.37,SE,137,8.0,12.0,92,0.00,,-RA,0.57,VWS V14.01,2013-01-30 00:45:00,
2013-01-29 19:55:00,55.9,53.6,29.37,SE,137,5.0,13.0,92,0.00,,-RA,0.57,VWS V14.01,2013-01-30 00:55:00,
2013-01-29 20:05:00,56.0,53.4,29.36,SE,137,9.0,11.0,91,0.00,,-RA,0.57,VWS V14.01,2013-01-30 01:05:00,
2013-01-29 20:10:00,56.0,53.4,29.36,SE,145,10.0,12.0,91,0.00,,-RA,0.57,VWS V14.01,2013-01-30 01:10:00,
2013-01-29 20:15:00,56.0,53.1,29.35,SE,124,5.0,12.0,90,0.00,,-RA,0.57,VWS V14.01,2013-01-30 01:15:00,
2013-01-29 20:25:00,56.0,53.1,29.35,SE,145,15.0,19.0,90,0.00,,-RA,0.57,VWS V14.01,2013-01-30 01:25:00,
2013-01-29 20:30:00,56.0,52.8,29.33,SE,144,8.0,15.0,89,0.00,,-RA,0.57,VWS V14.01,2013-01-30 01:30:00,
2013-01-29 20:35:00,56.0,52.8,29.33,SE,134,8.0,19.0,89,0.00,,-RA,0.57,VWS V14.01,2013-01-30 01:35:00,
2013-01-29 20:40:00,56.2,53.0,29.33,SE,133,11.0,12.0,89,0.00,,OVC029,0.57,VWS V14.01,2013-01-30 01:40:00,
2013-01-29 20:45:00,56.2,53.0,29.33,SSE,157,11.0,13.0,89,0.00,,OVC029,0.57,VWS V14.01,2013-01-30 01:45:00,
2013-01-29 20:50:00,56.3,52.8,29.33,SSE,162,12.0,17.0,88,0.00,,OVC029,0.57,VWS V14.01,2013-01-30 01:50:00,
2013-01-29 21:01:00,56.5,53.0,29.32,SSE,148,5.0,13.0,88,0.01,,OVC029,0.58,VWS V14.01,2013-01-30 02:01:00,
2013-01-29 21:10:00,56.2,53.0,29.32,SE,138,2.0,14.0,89,0.01,,OVC029,0.58,VWS V14.01,2013-01-30 02:10:00,
2013-01-29 21:15:00,56.2,53.0,29.31,SE,138,0.0,13.0,89,0.01,,OVC029,0.58,VWS V14.01,2013-01-30 02:15:00,
2013-01-29 21:20:00,56.3,53.1,29.31,SSE,162,8.0,17.0,89,0.01,,OVC029,0.58,VWS V14.01,2013-01-30 02:20:00,
2013-01-29 21:30:00,56.3,53.1,29.29,SSE,157,3.0,16.0,89,0.06,,OVC029,0.63,VWS V14.01,2013-01-30 02:30:00,
2013-01-29 21:35:00,56.5,53.6,29.29,SSE,162,13.0,17.0,90,0.06,,OVC029,0.63,VWS V14.01,2013-01-30 02:35:00,
2013-01-29 21:40:00,56.5,53.6,29.29,SSE,154,8.0,13.0,90,0.06,,OVC022,0.63,VWS V14.01,2013-01-30 02:40:00,
2013-01-29 21:45:00,56.6,54.0,29.28,SSE,147,8.0,20.0,91,0.06,,OVC022,0.63,VWS V14.01,2013-01-30 02:45:00,
2013-01-29 21:50:00,56.9,54.3,29.28,SE,145,10.0,20.0,91,0.06,,OVC022,0.63,VWS V14.01,2013-01-30 02:50:00,
2013-01-29 21:55:00,56.9,54.0,29.28,SSE,151,9.0,13.0,90,0.06,,OVC022,0.63,VWS V14.01,2013-01-30 02:55:00,
2013-01-29 22:00:00,57.0,54.1,29.27,SSE,150,4.0,16.0,90,0.06,,OVC022,0.63,VWS V14.01,2013-01-30 03:00:00,
2013-01-29 22:10:00,57.3,54.4,29.27,SSE,161,7.0,14.0,90,0.07,,OVC022,0.65,VWS V14.01,2013-01-30 03:10:00,
2013-01-29 22:15:00,57.6,54.7,29.25,SSE,158,7.0,22.0,90,0.07,,OVC022,0.65,VWS V14.01,2013-01-30 03:15:00,
2013-01-29 22:25:00,58.1,54.9,29.25,South,181,6.0,17.0,89,0.08,,OVC022,0.66,VWS V14.01,2013-01-30 03:25:00,
2013-01-29 22:30:00,58.4,54.9,29.24,SE,138,8.0,25.0,88,0.07,,OVC022,0.66,VWS V14.01,2013-01-30 03:30:00,
2013-01-29 22:40:00,58.4,54.9,29.24,SSW,195,8.0,15.0,88,0.03,, +RA,0.66,VWS V14.01,2013-01-30 03:40:00,
2013-01-29 22:45:00,58.4,54.9,29.23,South,176,6.0,13.0,88,0.04,, +RA,0.67,VWS V14.01,2013-01-30 03:45:00,
2013-01-29 22:55:00,58.6,55.1,29.23,SE,137,7.0,13.0,88,0.04,, +RA,0.67,VWS V14.01,2013-01-30 03:55:00,
2013-01-29 23:00:00,58.6,55.1,29.21,SSE,165,10.0,19.0,88,0.04,, +RA,0.67,VWS V14.01,2013-01-30 04:00:00,
2013-01-29 23:05:00,58.6,55.4,29.21,SE,126,3.0,17.0,89,0.04,, +RA,0.67,VWS V14.01,2013-01-30 04:05:00,
2013-01-29 23:10:00,58.6,55.4,29.21,South,178,8.0,14.0,89,0.02,, +RA,0.67,VWS V14.01,2013-01-30 04:10:00,
2013-01-29 23:20:00,58.6,55.1,29.19,ESE,110,4.0,13.0,88,0.02,, +RA,0.67,VWS V14.01,2013-01-30 04:20:00,
2013-01-29 23:25:00,58.3,54.8,29.19,SSW,193,7.0,12.0,88,0.02,, +RA,0.67,VWS V14.01,2013-01-30 04:25:00,
2013-01-29 23:30:00,58.1,54.6,29.19,SSE,147,2.0,12.0,88,0.01,, +RA,0.67,VWS V14.01,2013-01-30 04:30:00,
2013-01-29 23:35:00,58.1,54.6,29.19,SSE,152,2.0,13.0,88,0.01,, +RA,0.67,VWS V14.01,2013-01-30 04:35:00,
2013-01-29 23:40:00,58.1,54.6,29.19,SSE,158,6.0,11.0,88,0.01,,-RA,0.67,VWS V14.01,2013-01-30 04:40:00,
2013-01-29 23:45:00,58.1,54.6,29.19,SSW,202,6.0,13.0,88,0.01,,-RA,0.67,VWS V14.01,2013-01-30 04:45:00,
2013-01-29 23:50:00,58.0,54.5,29.19,WSW,243,3.0,8.0,88,0.00,,-RA,0.67,VWS V14.01,2013-01-30 04:50:00,
2013-01-29 23:55:00,57.8,54.3,29.19,West,260,10.0,16.0,88,0.00,,-RA,0.67,VWS V14.01,2013-01-30 04:55:00,